createdAt,value
2019-02-06T00:02:22.895Z,25.20
2019-02-06T00:04:51.916Z,28.37
2019-02-06T00:07:20.920Z,28.43
2019-02-06T00:09:49.793Z,32.20
2019-02-06T00:12:18.990Z,25.37
2019-02-06T00:14:47.921Z,22.62
2019-02-06T00:17:16.853Z,27.52
2019-02-06T00:19:45.792Z,28.83
2019-02-06T00:22:14.671Z,20.33
2019-02-06T00:24:43.548Z,39.23
2019-02-06T00:27:12.334Z,18.20
2019-02-06T00:29:41.593Z,16.77
2019-02-06T00:32:10.859Z,28.03
2019-02-06T00:34:39.659Z,25.02
2019-02-06T00:37:08.529Z,24.70
2019-02-06T00:39:37.323Z,20.53
2019-02-06T00:42:06.446Z,17.73
2019-02-06T00:44:35.753Z,21.93
2019-02-06T00:47:04.698Z,22.30
2019-02-06T00:49:33.499Z,24.63
2019-02-06T00:52:02.380Z,31.20
2019-02-06T00:54:31.177Z,28.00
2019-02-06T00:56:59.967Z,34.03
2019-02-06T00:59:28.958Z,39.50
2019-02-06T01:01:58.058Z,29.10
2019-02-06T01:04:27.622Z,46.20
2019-02-06T01:06:57.436Z,43.64
2019-02-06T01:09:26.439Z,28.33
2019-02-06T01:11:55.237Z,37.63
2019-02-06T01:14:24.239Z,35.50
2019-02-06T01:16:53.188Z,41.93
2019-02-06T01:19:22.016Z,36.83
2019-02-06T01:21:50.880Z,37.88
2019-02-06T01:24:19.783Z,35.40
2019-02-06T01:26:48.766Z,42.10
2019-02-06T01:29:17.573Z,33.93
2019-02-06T01:31:46.927Z,44.60
2019-02-06T01:34:15.739Z,43.53
2019-02-06T01:36:44.600Z,42.37
2019-02-06T01:39:13.827Z,37.75
2019-02-06T01:41:42.851Z,40.37
2019-02-06T01:44:11.914Z,43.13
2019-02-06T01:46:40.782Z,54.00
2019-02-06T01:49:09.727Z,40.07
2019-02-06T01:51:38.787Z,39.90
2019-02-06T01:54:07.745Z,45.57
2019-02-06T01:56:36.591Z,42.47
2019-02-06T01:59:05.527Z,39.83
2019-02-06T02:01:34.407Z,44.00
2019-02-06T02:04:03.728Z,46.90
2019-02-06T02:06:32.668Z,36.83
2019-02-06T02:09:01.815Z,49.37
2019-02-06T02:11:30.787Z,46.27
2019-02-06T02:13:59.944Z,43.93
2019-02-06T02:16:30.084Z,43.78
2019-02-06T02:19:00.159Z,39.30
2019-02-06T02:21:29.138Z,41.03
2019-02-06T02:23:58.210Z,37.98
2019-02-06T02:26:27.038Z,36.05
2019-02-06T02:28:55.953Z,42.60
2019-02-06T02:31:24.802Z,49.73
2019-02-06T02:33:53.980Z,30.80
2019-02-06T02:36:22.885Z,46.10
2019-02-06T02:38:52.053Z,37.13
2019-02-06T02:41:21.099Z,31.60
2019-02-06T02:43:49.980Z,37.60
2019-02-06T02:46:19.078Z,38.77
2019-02-06T02:48:47.904Z,34.48
2019-02-06T02:51:17.100Z,31.20
2019-02-06T02:53:45.997Z,25.20
2019-02-06T02:56:14.908Z,29.20
2019-02-06T02:58:43.741Z,29.73
2019-02-06T03:01:49.863Z,26.77
2019-02-06T03:04:34.462Z,33.47
2019-02-06T03:07:03.453Z,42.57
2019-02-06T03:09:32.444Z,38.00
2019-02-06T03:12:01.984Z,48.28
2019-02-06T03:14:30.947Z,46.77
2019-02-06T03:17:03.174Z,42.83
2019-02-06T03:19:30.491Z,55.97
2019-02-06T03:21:59.427Z,45.87
2019-02-06T03:24:28.332Z,52.40
2019-02-06T03:26:57.183Z,42.25
2019-02-06T03:29:25.961Z,60.83
2019-02-06T03:31:54.770Z,48.30
2019-02-06T03:34:23.555Z,53.63
2019-02-06T03:36:52.414Z,42.80
2019-02-06T03:39:21.315Z,63.63
2019-02-06T03:41:50.393Z,50.80
2019-02-06T03:44:19.270Z,45.80
2019-02-06T03:46:48.130Z,56.73
2019-02-06T03:49:16.934Z,47.07
2019-02-06T03:51:45.843Z,52.03
2019-02-06T03:54:14.807Z,50.43
2019-02-06T03:56:43.678Z,51.17
2019-02-06T03:59:12.532Z,45.92
2019-02-06T04:01:41.491Z,48.10
2019-02-06T04:04:10.291Z,55.33
2019-02-06T04:06:39.108Z,48.37
2019-02-06T04:09:09.094Z,42.20
2019-02-06T04:11:37.983Z,49.38
2019-02-06T04:14:07.707Z,45.88
2019-02-06T04:16:36.548Z,45.90
2019-02-06T04:19:05.618Z,50.23
2019-02-06T04:21:34.556Z,49.88
2019-02-06T04:24:03.562Z,41.20
2019-02-06T04:26:32.457Z,43.40
2019-02-06T04:29:01.718Z,25.17
2019-02-06T04:31:30.529Z,30.10
2019-02-06T04:33:59.421Z,26.73
2019-02-06T04:36:28.314Z,33.07
2019-02-06T04:38:57.136Z,27.58
2019-02-06T04:41:26.004Z,32.03
2019-02-06T04:43:55.094Z,32.13
2019-02-06T04:46:23.890Z,22.77
2019-02-06T04:48:52.707Z,20.50
2019-02-06T04:51:21.541Z,24.20
2019-02-06T04:53:50.359Z,26.37
2019-02-06T04:56:19.270Z,27.60
2019-02-06T04:58:48.057Z,29.83
2019-02-06T05:01:17.231Z,28.23
2019-02-06T05:03:46.040Z,28.33
2019-02-06T05:06:15.097Z,23.60
2019-02-06T05:08:44.034Z,22.33
2019-02-06T05:11:12.937Z,22.47
2019-02-06T05:13:41.734Z,29.30
2019-02-06T05:16:10.605Z,33.50
2019-02-06T05:18:39.622Z,28.20
2019-02-06T05:21:08.411Z,30.50
2019-02-06T05:23:37.209Z,30.80
2019-02-06T05:26:06.186Z,38.02
2019-02-06T05:28:35.084Z,36.60
2019-02-06T05:31:03.961Z,32.33
2019-02-06T05:33:33.132Z,31.97
2019-02-06T05:36:01.933Z,37.40
2019-02-06T05:38:30.733Z,47.37
2019-02-06T05:40:59.534Z,33.67
2019-02-06T05:43:28.630Z,28.93
2019-02-06T05:45:57.489Z,32.73
2019-02-06T05:48:26.303Z,40.97
2019-02-06T05:50:55.182Z,41.48
2019-02-06T05:53:24.092Z,37.63
2019-02-06T05:55:52.915Z,48.20
2019-02-06T05:58:21.832Z,37.80
2019-02-06T06:00:50.888Z,31.73
2019-02-06T06:03:19.839Z,51.15
2019-02-06T06:05:49.229Z,34.97
2019-02-06T06:08:18.038Z,38.57
2019-02-06T06:10:46.987Z,44.55
2019-02-06T06:13:18.376Z,39.80
2019-02-06T06:15:46.461Z,40.70
2019-02-06T06:18:15.542Z,40.10
2019-02-06T06:20:44.417Z,50.00
2019-02-06T06:23:13.293Z,34.40
2019-02-06T06:25:42.277Z,42.40
2019-02-06T06:28:11.238Z,34.17
2019-02-06T06:30:40.056Z,33.70
2019-02-06T06:33:08.862Z,43.00
2019-02-06T06:35:37.755Z,29.73
2019-02-06T06:38:07.170Z,42.87
2019-02-06T06:40:36.046Z,32.53
2019-02-06T06:43:05.326Z,32.67
2019-02-06T06:45:34.124Z,36.60
2019-02-06T06:48:02.914Z,35.70
2019-02-06T06:50:31.727Z,42.35
2019-02-06T06:53:00.597Z,35.37
2019-02-06T06:55:29.597Z,42.50
2019-02-06T06:57:58.400Z,29.83
2019-02-06T07:00:28.782Z,35.55
2019-02-06T07:02:57.830Z,31.40
2019-02-06T07:05:26.777Z,39.93
2019-02-06T07:07:56.033Z,42.83
2019-02-06T07:10:25.363Z,30.60
2019-02-06T07:12:54.451Z,32.27
2019-02-06T07:15:25.569Z,20.37
2019-02-06T07:17:54.600Z,30.77
2019-02-06T07:20:23.750Z,38.40
2019-02-06T07:22:52.651Z,29.47
2019-02-06T07:25:22.093Z,34.43
2019-02-06T07:27:51.038Z,31.93
2019-02-06T07:30:22.715Z,27.33
2019-02-06T07:32:52.316Z,32.47
2019-02-06T07:35:21.294Z,25.47
2019-02-06T07:37:50.156Z,31.30
2019-02-06T07:40:19.525Z,32.83
2019-02-06T07:42:48.391Z,30.75
2019-02-06T07:45:17.560Z,27.97
2019-02-06T07:47:46.636Z,42.33
2019-02-06T07:50:19.265Z,38.00
2019-02-06T07:52:48.148Z,31.57
2019-02-06T07:55:17.566Z,36.13
2019-02-06T07:57:46.500Z,58.33
2019-02-06T08:00:15.443Z,54.20
2019-02-06T08:02:44.958Z,47.67
2019-02-06T08:05:16.215Z,39.50
2019-02-06T08:07:45.155Z,46.53
2019-02-06T08:10:23.535Z,40.05
2019-02-06T08:12:52.772Z,40.80
2019-02-06T08:15:21.842Z,41.90
2019-02-06T08:17:50.717Z,51.27
2019-02-06T08:20:20.205Z,43.20
2019-02-06T08:22:49.234Z,39.37
2019-02-06T08:25:18.438Z,39.80
2019-02-06T08:27:47.586Z,36.87
2019-02-06T08:30:30.872Z,32.97
2019-02-06T08:32:59.845Z,43.47
2019-02-06T08:35:28.717Z,35.15
2019-02-06T08:37:57.768Z,43.23
2019-02-06T08:40:27.124Z,40.67
2019-02-06T08:42:56.022Z,37.28
2019-02-06T08:45:24.974Z,42.15
2019-02-06T08:47:54.108Z,37.73
2019-02-06T08:50:23.332Z,39.37
2019-02-06T08:52:52.571Z,39.60
2019-02-06T08:55:23.352Z,36.83
2019-02-06T08:57:52.697Z,40.95
2019-02-06T09:00:26.797Z,32.07
2019-02-06T09:02:55.860Z,34.10
2019-02-06T09:05:25.192Z,35.57
2019-02-06T09:07:54.237Z,43.83
2019-02-06T09:10:24.046Z,42.00
2019-02-06T09:12:53.863Z,41.33
2019-02-06T09:15:22.807Z,40.35
2019-02-06T09:17:51.755Z,30.00
2019-02-06T09:20:22.825Z,45.90
2019-02-06T09:22:51.886Z,39.43
2019-02-06T09:25:21.481Z,28.73
2019-02-06T09:27:50.514Z,29.90
2019-02-06T09:30:21.605Z,33.40
2019-02-06T09:32:50.625Z,36.10
2019-02-06T09:35:19.712Z,37.43
2019-02-06T09:37:48.668Z,39.43
2019-02-06T09:40:20.083Z,34.30
2019-02-06T09:42:49.050Z,26.60
2019-02-06T09:45:18.183Z,30.07
2019-02-06T09:47:47.839Z,30.90
2019-02-06T09:50:19.897Z,33.77
2019-02-06T09:52:48.921Z,33.85
2019-02-06T09:55:18.008Z,33.73
2019-02-06T09:57:46.903Z,44.08
2019-02-06T10:00:19.276Z,30.67
2019-02-06T10:02:48.101Z,35.77
2019-02-06T10:05:17.137Z,34.97
2019-02-06T10:07:46.322Z,32.03
2019-02-06T10:10:17.667Z,31.70
2019-02-06T10:12:46.606Z,30.13
2019-02-06T10:15:19.015Z,33.53
2019-02-06T10:17:48.637Z,27.58
2019-02-06T10:20:19.729Z,31.62
2019-02-06T10:22:48.856Z,30.70
2019-02-06T10:25:17.786Z,44.13
2019-02-06T10:27:46.726Z,31.55
2019-02-06T10:30:25.888Z,31.20
2019-02-06T10:32:54.941Z,32.73
2019-02-06T10:35:23.799Z,29.12
2019-02-06T10:37:52.665Z,29.10
2019-02-06T10:40:21.719Z,27.33
2019-02-06T10:42:50.606Z,36.20
2019-02-06T10:45:21.007Z,31.57
2019-02-06T10:47:50.399Z,31.20
2019-02-06T10:50:22.066Z,28.40
2019-02-06T10:52:50.929Z,31.03
2019-02-06T10:55:20.141Z,23.30
2019-02-06T10:57:49.711Z,30.55
2019-02-06T11:00:25.185Z,27.10
2019-02-06T11:02:54.426Z,29.30
2019-02-06T11:05:23.287Z,25.87
2019-02-06T11:07:52.077Z,30.87
2019-02-06T11:10:22.569Z,29.53
2019-02-06T11:12:51.522Z,38.40
2019-02-06T11:15:21.000Z,26.60
2019-02-06T11:17:50.301Z,26.97
2019-02-06T11:20:19.942Z,29.60
2019-02-06T11:22:48.903Z,26.40
2019-02-06T11:25:18.224Z,28.50
2019-02-06T11:27:47.183Z,40.90
2019-02-06T11:30:22.095Z,29.00
2019-02-06T11:32:51.661Z,23.63
2019-02-06T11:35:20.752Z,25.60
2019-02-06T11:37:50.735Z,22.93
2019-02-06T11:40:21.620Z,19.77
2019-02-06T11:42:51.107Z,22.62
2019-02-06T11:45:29.629Z,23.62
2019-02-06T11:47:58.702Z,28.83
2019-02-06T11:50:33.314Z,19.70
2019-02-06T11:53:02.243Z,26.07
2019-02-06T11:55:31.318Z,24.77
2019-02-06T11:58:00.206Z,27.47
2019-02-06T12:00:36.649Z,23.80
2019-02-06T12:03:05.602Z,30.43
2019-02-06T12:05:34.521Z,24.77
2019-02-06T12:08:03.385Z,29.83
2019-02-06T12:10:32.319Z,26.35
2019-02-06T12:13:01.254Z,23.10
2019-02-06T12:15:30.110Z,23.10
2019-02-06T12:17:58.976Z,38.20
2019-02-06T12:20:27.921Z,22.80
2019-02-06T12:22:56.846Z,33.92
2019-02-06T12:25:25.802Z,29.77
2019-02-06T12:27:55.401Z,22.30
2019-02-06T12:30:27.612Z,20.23
2019-02-06T12:32:56.569Z,22.03
2019-02-06T12:35:25.522Z,19.70
2019-02-06T12:37:54.462Z,28.03
2019-02-06T12:40:23.604Z,27.87
2019-02-06T12:42:52.653Z,24.73
2019-02-06T12:45:23.059Z,23.52
2019-02-06T12:47:52.887Z,25.20
2019-02-06T12:50:22.938Z,27.42
2019-02-06T12:52:52.743Z,21.93
2019-02-06T12:55:25.188Z,23.62
2019-02-06T12:57:54.334Z,21.20
2019-02-06T13:00:28.501Z,21.23
2019-02-06T13:03:00.138Z,27.63
2019-02-06T13:05:28.893Z,27.33
2019-02-06T13:07:58.070Z,23.65
2019-02-06T13:10:33.905Z,23.30
2019-02-06T13:12:57.512Z,24.00
2019-02-06T13:15:26.582Z,20.33
2019-02-06T13:17:55.884Z,22.43
2019-02-06T13:20:26.799Z,21.37
2019-02-06T13:22:55.732Z,22.57
2019-02-06T13:25:25.754Z,23.83
2019-02-06T13:27:54.635Z,20.90
2019-02-06T13:30:25.937Z,30.40
2019-02-06T13:32:54.858Z,21.97
2019-02-06T13:35:23.801Z,32.03
2019-02-06T13:37:53.646Z,25.00
2019-02-06T13:40:23.762Z,27.37
2019-02-06T13:42:52.700Z,27.40
2019-02-06T13:45:26.685Z,27.23
2019-02-06T13:47:55.614Z,21.87
2019-02-06T13:50:25.377Z,25.03
2019-02-06T13:52:54.441Z,27.10
2019-02-06T13:55:24.264Z,29.45
2019-02-06T13:57:53.207Z,22.65
2019-02-06T14:00:27.930Z,26.73
2019-02-06T14:02:56.982Z,21.90
2019-02-06T14:05:27.950Z,24.17
2019-02-06T14:07:59.130Z,19.40
2019-02-06T14:10:28.808Z,25.03
2019-02-06T14:12:57.743Z,28.70
2019-02-06T14:15:29.458Z,22.60
2019-02-06T14:17:58.419Z,21.77
2019-02-06T14:20:27.861Z,26.97
2019-02-06T14:23:00.057Z,19.85
2019-02-06T14:25:35.564Z,24.55
2019-02-06T14:28:13.570Z,23.47
2019-02-06T14:31:15.446Z,19.80
2019-02-06T14:34:12.303Z,21.83
2019-02-06T14:37:43.530Z,16.02
2019-02-06T14:40:43.294Z,19.60
2019-02-06T14:43:26.243Z,22.13
2019-02-06T14:46:33.699Z,19.27
2019-02-06T14:49:25.635Z,19.95
2019-02-06T14:52:34.458Z,19.60
2019-02-06T14:55:28.629Z,17.53
2019-02-06T14:58:07.468Z,22.00
2019-02-06T15:01:00.123Z,19.87
2019-02-06T15:03:47.275Z,19.97
2019-02-06T15:06:56.382Z,14.77
2019-02-06T15:09:56.242Z,17.33
2019-02-06T15:13:00.956Z,25.20
2019-02-06T15:15:55.161Z,20.67
2019-02-06T15:18:53.050Z,16.30
2019-02-06T15:21:56.768Z,18.50
2019-02-06T15:25:04.921Z,25.37
2019-02-06T15:28:14.584Z,18.87
2019-02-06T15:31:12.609Z,19.37
2019-02-06T15:34:21.273Z,18.63
2019-02-06T15:37:18.998Z,22.67
2019-02-06T15:40:27.623Z,15.90
2019-02-06T15:43:03.192Z,13.83
2019-02-06T15:46:17.622Z,16.73
2019-02-06T15:49:06.957Z,15.43
2019-02-06T15:52:00.207Z,12.67
2019-02-06T15:55:28.278Z,16.90
2019-02-06T15:58:54.003Z,19.02
2019-02-06T16:01:44.230Z,20.63
2019-02-06T16:04:34.873Z,18.93
2019-02-06T16:07:53.250Z,16.43
2019-02-06T16:10:41.590Z,17.10
2019-02-06T16:13:18.507Z,13.10
2019-02-06T16:16:13.246Z,16.80
2019-02-06T16:19:07.077Z,17.40
2019-02-06T16:21:58.169Z,13.80
2019-02-06T16:24:51.606Z,16.73
2019-02-06T16:27:37.723Z,11.53
2019-02-06T16:30:19.181Z,19.30
2019-02-06T16:33:28.877Z,12.87
2019-02-06T16:36:50.311Z,13.73
2019-02-06T16:39:47.667Z,11.57
2019-02-06T16:42:34.070Z,16.30
2019-02-06T16:45:39.525Z,16.97
2019-02-06T16:48:52.696Z,21.47
2019-02-06T16:51:39.281Z,17.83
2019-02-06T16:54:52.562Z,18.93
2019-02-06T16:58:03.835Z,23.17
2019-02-06T17:01:00.934Z,20.27
2019-02-06T17:04:01.381Z,17.57
2019-02-06T17:07:10.444Z,13.10
2019-02-06T17:10:14.743Z,17.13
2019-02-06T17:13:27.993Z,15.80
2019-02-06T17:16:24.688Z,11.20
2019-02-06T17:19:17.428Z,15.80
2019-02-06T17:22:45.718Z,16.80
2019-02-06T17:25:45.157Z,24.00
2019-02-06T17:28:20.892Z,24.73
2019-02-06T17:31:24.051Z,15.78
2019-02-06T17:34:31.217Z,21.63
2019-02-06T17:37:31.907Z,19.75
2019-02-06T17:40:23.808Z,16.00
2019-02-06T17:43:03.744Z,18.37
2019-02-06T17:46:12.004Z,21.27
2019-02-06T17:49:26.359Z,20.83
2019-02-06T17:52:17.825Z,20.10
2019-02-06T17:55:19.072Z,19.97
2019-02-06T17:57:49.071Z,16.27
2019-02-06T18:00:28.429Z,17.10
2019-02-06T18:02:58.439Z,19.63
2019-02-06T18:05:27.310Z,21.20
2019-02-06T18:07:56.439Z,24.23
2019-02-06T18:10:25.603Z,21.97
2019-02-06T18:12:54.560Z,17.93
2019-02-06T18:15:23.542Z,25.23
2019-02-06T18:17:52.334Z,16.93
2019-02-06T18:20:21.290Z,27.60
2019-02-06T18:22:50.180Z,30.03
2019-02-06T18:25:19.440Z,21.42
2019-02-06T18:27:48.352Z,29.37
2019-02-06T18:30:19.144Z,30.37
2019-02-06T18:32:48.096Z,31.70
2019-02-06T18:35:17.641Z,39.53
2019-02-06T18:37:49.660Z,30.60
2019-02-06T18:40:19.484Z,36.47
2019-02-06T18:42:48.858Z,28.37
2019-02-06T18:45:18.299Z,38.37
2019-02-06T18:47:47.842Z,37.80
2019-02-06T18:50:19.920Z,31.35
2019-02-06T18:52:49.057Z,28.13
2019-02-06T18:55:17.991Z,32.57
2019-02-06T18:57:47.029Z,35.48
2019-02-06T19:00:20.348Z,35.93
2019-02-06T19:02:49.298Z,35.93
2019-02-06T19:05:19.681Z,36.53
2019-02-06T19:07:48.617Z,43.70
2019-02-06T19:10:19.260Z,52.88
2019-02-06T19:12:50.695Z,25.43
2019-02-06T19:15:18.946Z,30.73
2019-02-06T19:17:48.448Z,38.07
2019-02-06T19:20:17.851Z,41.20
2019-02-06T19:22:46.833Z,33.80
2019-02-06T19:25:15.898Z,38.30
2019-02-06T19:27:44.852Z,40.33
2019-02-06T19:30:23.678Z,33.43
2019-02-06T19:32:52.752Z,36.30
2019-02-06T19:35:21.613Z,38.93
2019-02-06T19:37:50.483Z,33.63
2019-02-06T19:40:19.450Z,26.10
2019-02-06T19:42:58.788Z,31.13
2019-02-06T19:45:18.952Z,27.55
2019-02-06T19:47:48.167Z,25.90
2019-02-06T19:50:26.129Z,28.90
2019-02-06T19:52:56.161Z,28.07
2019-02-06T19:55:25.105Z,31.50
2019-02-06T19:57:53.984Z,27.50
2019-02-06T20:00:25.947Z,28.30
2019-02-06T20:02:54.774Z,33.67
2019-02-06T20:05:23.983Z,26.77
2019-02-06T20:07:53.142Z,54.30
2019-02-06T20:10:24.724Z,28.90
2019-02-06T20:12:53.669Z,32.07
2019-02-06T20:15:22.634Z,30.80
2019-02-06T20:17:51.583Z,34.43
2019-02-06T20:20:21.554Z,25.43
2019-02-06T20:22:50.671Z,27.53
2019-02-06T20:25:19.944Z,30.48
2019-02-06T20:27:48.994Z,33.40
2019-02-06T20:30:20.549Z,38.47
2019-02-06T20:32:49.509Z,31.70
2019-02-06T20:35:18.472Z,34.70
2019-02-06T20:37:47.417Z,33.30
2019-02-06T20:40:21.897Z,30.80
2019-02-06T20:42:50.932Z,36.40
2019-02-06T20:45:19.986Z,29.40
2019-02-06T20:47:48.927Z,26.63
2019-02-06T20:50:20.501Z,32.93
2019-02-06T20:52:49.405Z,30.33
2019-02-06T20:55:19.862Z,35.77
2019-02-06T20:57:49.250Z,33.30
2019-02-06T21:00:20.936Z,39.53
2019-02-06T21:02:49.912Z,33.53
2019-02-06T21:05:18.773Z,28.70
2019-02-06T21:07:47.644Z,39.50
2019-02-06T21:10:19.074Z,29.20
2019-02-06T21:12:47.965Z,27.30
2019-02-06T21:15:17.111Z,33.60
2019-02-06T21:17:46.262Z,24.40
2019-02-06T21:20:17.681Z,34.77
2019-02-06T21:22:46.630Z,28.20
2019-02-06T21:25:17.103Z,36.60
2019-02-06T21:27:46.350Z,34.27
2019-02-06T21:30:17.880Z,36.30
2019-02-06T21:32:46.799Z,38.07
2019-02-06T21:35:15.662Z,26.35
2019-02-06T21:37:44.651Z,33.20
2019-02-06T21:40:20.326Z,46.48
2019-02-06T21:42:49.798Z,36.33
2019-02-06T21:45:18.724Z,53.63
2019-02-06T21:47:47.785Z,37.03
2019-02-06T21:50:18.013Z,32.33
2019-02-06T21:52:46.997Z,33.20
2019-02-06T21:55:17.044Z,31.97
2019-02-06T21:57:46.035Z,34.90
2019-02-06T22:02:37.945Z,30.90
2019-02-06T22:05:07.246Z,38.73
2019-02-06T22:07:36.034Z,28.20
2019-02-06T22:10:06.602Z,29.43
2019-02-06T22:12:35.491Z,29.23
2019-02-06T22:15:07.061Z,50.63
2019-02-06T22:17:35.864Z,39.87
2019-02-06T22:20:05.587Z,31.75
2019-02-06T22:22:34.448Z,31.97
2019-02-06T22:25:03.693Z,31.00
2019-02-06T22:27:32.489Z,33.67
2019-02-06T22:30:01.293Z,32.25
2019-02-06T22:32:30.239Z,44.97
2019-02-06T22:34:59.046Z,31.67
2019-02-06T22:37:27.849Z,46.67
2019-02-06T22:39:57.032Z,36.03
2019-02-06T22:42:25.822Z,41.37
2019-02-06T22:44:54.652Z,28.57
2019-02-06T22:47:23.442Z,31.83
2019-02-06T22:49:52.338Z,37.67
2019-02-06T22:52:23.008Z,37.80
2019-02-06T22:54:51.922Z,41.03
2019-02-06T22:57:20.714Z,29.57
2019-02-06T22:59:49.618Z,33.90
2019-02-06T23:02:18.597Z,33.40
2019-02-06T23:04:47.423Z,33.80
2019-02-06T23:07:16.370Z,32.07
2019-02-06T23:09:45.357Z,25.33
2019-02-06T23:12:14.307Z,31.13
2019-02-06T23:14:43.275Z,26.73
2019-02-06T23:17:12.136Z,32.13
2019-02-06T23:19:40.932Z,40.37
2019-02-06T23:22:09.744Z,29.83
2019-02-06T23:24:38.618Z,35.87
2019-02-06T23:27:07.420Z,37.00
2019-02-06T23:29:36.354Z,34.03
2019-02-06T23:32:05.807Z,35.17
2019-02-06T23:34:34.683Z,35.10
2019-02-06T23:37:03.659Z,29.33
2019-02-06T23:39:32.609Z,35.63
2019-02-06T23:42:01.562Z,31.57
2019-02-06T23:44:30.357Z,32.17
2019-02-06T23:46:59.238Z,44.42
2019-02-06T23:49:28.075Z,35.27
2019-02-06T23:51:56.969Z,29.37
2019-02-06T23:54:25.905Z,22.37
2019-02-06T23:56:55.089Z,29.50
2019-02-06T23:59:25.066Z,35.27
